createdAt,value
2022-10-09T00:02:59.635Z,100147.28
2022-10-09T00:07:00.858Z,100146.38
2022-10-09T00:11:09.773Z,100142.00
2022-10-09T00:15:11.212Z,100148.88
2022-10-09T00:19:13.134Z,100146.13
2022-10-09T00:23:17.110Z,100146.03
2022-10-09T00:27:18.382Z,100136.56
2022-10-09T00:31:20.064Z,100139.72
2022-10-09T00:35:21.771Z,100138.00
2022-10-09T00:39:23.060Z,100140.38
2022-10-09T00:43:56.629Z,100138.50
2022-10-09T00:48:00.194Z,100130.63
2022-10-09T00:52:04.006Z,100131.31
2022-10-09T00:56:05.361Z,100127.84
2022-10-09T01:00:09.400Z,100133.69
2022-10-09T01:04:10.682Z,100118.06
2022-10-09T01:08:19.540Z,100122.25
2022-10-09T01:12:39.814Z,100117.94
2022-10-09T01:17:02.121Z,100118.69
2022-10-09T01:21:25.772Z,100120.03
2022-10-09T01:25:34.221Z,100126.09
2022-10-09T01:29:37.333Z,100120.91
2022-10-09T01:33:39.380Z,100113.06
2022-10-09T01:37:43.904Z,100118.09
2022-10-09T01:41:46.391Z,100101.50
2022-10-09T01:45:47.861Z,100100.66
2022-10-09T01:50:03.858Z,100095.44
2022-10-09T01:54:07.044Z,100094.56
2022-10-09T01:58:17.476Z,100088.56
2022-10-09T02:02:20.185Z,100087.63
2022-10-09T02:06:21.836Z,100078.91
2022-10-09T02:10:23.389Z,100079.69
2022-10-09T02:14:24.710Z,100077.81
2022-10-09T02:18:32.043Z,100070.03
2022-10-09T02:22:34.361Z,100064.59
2022-10-09T02:26:36.509Z,100061.97
2022-10-09T02:30:51.086Z,100048.34
2022-10-09T02:34:52.945Z,100046.38
2022-10-09T02:38:54.979Z,100042.72
2022-10-09T02:42:56.228Z,100044.47
2022-10-09T02:46:57.480Z,100042.56
2022-10-09T02:50:59.253Z,100044.22
2022-10-09T02:55:00.550Z,100031.16
2022-10-09T02:59:01.817Z,100029.38
2022-10-09T03:03:03.140Z,100027.66
2022-10-09T03:07:04.425Z,100024.91
2022-10-09T03:11:05.742Z,100023.22
2022-10-09T03:15:07.377Z,100021.31
2022-10-09T03:19:08.957Z,100017.81
2022-10-09T03:23:10.454Z,100010.97
2022-10-09T03:27:11.841Z,100007.38
2022-10-09T03:31:33.065Z,100018.38
2022-10-09T03:35:34.922Z,100020.13
2022-10-09T03:39:36.249Z,100020.81
2022-10-09T03:43:37.572Z,100019.75
2022-10-09T03:47:38.889Z,100019.00
2022-10-09T03:51:40.252Z,100001.81
2022-10-09T03:55:41.520Z,100015.47
2022-10-09T03:59:42.890Z,100013.78
2022-10-09T04:03:44.140Z,100007.88
2022-10-09T04:07:45.480Z,100010.44
2022-10-09T04:11:46.713Z,100017.19
2022-10-09T04:15:51.531Z,100015.25
2022-10-09T04:19:52.777Z,100009.28
2022-10-09T04:23:54.069Z,100010.09
2022-10-09T04:27:55.280Z,100005.59
2022-10-09T04:31:56.675Z,99996.25
2022-10-09T04:35:58.004Z,99990.25
2022-10-09T04:39:59.372Z,100000.50
2022-10-09T04:44:00.616Z,99998.78
2022-10-09T04:48:02.028Z,99992.72
2022-10-09T04:52:03.273Z,99993.59
2022-10-09T04:56:10.696Z,99990.06
2022-10-09T05:00:12.313Z,99983.84
2022-10-09T05:04:13.570Z,99987.31
2022-10-09T05:08:14.834Z,99980.53
2022-10-09T05:12:16.244Z,99983.13
2022-10-09T05:16:19.154Z,99987.31
2022-10-09T05:20:20.529Z,99991.50
2022-10-09T05:24:21.888Z,99993.09
2022-10-09T05:28:23.872Z,99986.31
2022-10-09T05:32:25.157Z,99990.63
2022-10-09T05:36:26.480Z,99996.50
2022-10-09T05:44:08.825Z,99981.16
2022-10-09T05:48:10.067Z,99982.88
2022-10-09T05:52:11.443Z,99987.31
2022-10-09T05:56:20.052Z,99988.94
2022-10-09T06:00:21.360Z,99985.56
2022-10-09T06:04:23.949Z,99981.41
2022-10-09T06:08:25.209Z,99985.88
2022-10-09T06:12:26.452Z,99980.94
2022-10-09T06:16:29.433Z,99980.28
2022-10-09T06:20:30.739Z,99978.09
2022-10-09T06:24:32.014Z,99981.22
2022-10-09T06:28:34.303Z,99975.78
2022-10-09T06:32:36.547Z,99980.78
2022-10-09T06:36:37.964Z,99979.97
2022-10-09T06:40:39.333Z,99976.41
2022-10-09T06:44:43.089Z,99985.19
2022-10-09T06:48:45.468Z,99983.53
2022-10-09T06:52:47.100Z,99980.25
2022-10-09T06:56:48.588Z,99979.50
2022-10-09T07:00:49.863Z,99983.06
2022-10-09T07:04:51.162Z,99969.34
2022-10-09T07:08:54.204Z,99984.03
2022-10-09T07:12:55.607Z,99979.66
2022-10-09T07:16:56.991Z,99976.88
2022-10-09T07:20:59.936Z,99980.03
2022-10-09T07:25:01.261Z,99978.75
2022-10-09T07:29:03.896Z,99969.63
2022-10-09T07:33:06.428Z,99975.13
2022-10-09T07:37:08.776Z,99967.59
2022-10-09T07:41:11.488Z,99967.78
2022-10-09T07:45:12.760Z,99965.28
2022-10-09T07:49:14.008Z,99959.31
2022-10-09T07:53:15.525Z,99964.56
2022-10-09T07:57:16.781Z,99962.84
2022-10-09T08:01:20.404Z,99964.59
2022-10-09T08:05:21.897Z,99955.03
2022-10-09T08:09:41.756Z,99957.56
2022-10-09T08:13:44.092Z,99948.81
2022-10-09T08:17:45.368Z,99950.44
2022-10-09T08:21:46.660Z,99933.81
2022-10-09T08:25:49.883Z,99937.22
2022-10-09T08:29:51.528Z,99935.34
2022-10-09T08:33:57.372Z,99938.72
2022-10-09T08:37:58.619Z,99933.38
2022-10-09T08:42:03.572Z,99927.97
2022-10-09T08:46:21.091Z,99934.78
2022-10-09T08:50:25.240Z,99925.81
2022-10-09T08:54:32.263Z,99920.38
2022-10-09T08:58:34.578Z,99922.72
2022-10-09T09:02:54.660Z,99910.22
2022-10-09T09:07:14.863Z,99907.38
2022-10-09T09:11:28.256Z,99912.22
2022-10-09T09:15:44.717Z,99911.97
2022-10-09T09:19:51.036Z,99900.63
2022-10-09T09:23:52.317Z,99884.69
2022-10-09T09:27:54.607Z,99882.72
2022-10-09T09:31:58.896Z,99880.63
2022-10-09T09:36:03.248Z,99872.47
2022-10-09T09:40:35.665Z,99870.53
2022-10-09T09:44:29.792Z,99872.03
2022-10-09T09:48:38.592Z,99870.25
2022-10-09T09:52:43.156Z,99860.50
2022-10-09T09:57:11.124Z,99853.41
2022-10-09T10:01:06.882Z,99841.94
2022-10-09T10:05:23.009Z,99836.63
2022-10-09T10:09:24.453Z,99839.19
2022-10-09T10:13:39.628Z,99830.22
2022-10-09T10:17:40.897Z,99831.72
2022-10-09T10:21:49.113Z,99817.50
2022-10-09T10:25:51.691Z,99816.28
2022-10-09T10:29:56.160Z,99814.63
2022-10-09T10:33:57.771Z,99808.56
2022-10-09T10:38:01.990Z,99792.56
2022-10-09T10:42:07.149Z,99794.69
2022-10-09T10:46:11.550Z,99777.97
2022-10-09T10:50:13.807Z,99768.84
2022-10-09T10:54:35.136Z,99768.47
2022-10-09T10:58:47.644Z,99760.25
2022-10-09T11:02:52.319Z,99753.81
2022-10-09T11:07:08.673Z,99755.41
2022-10-09T11:11:15.980Z,99759.75
2022-10-09T11:15:37.596Z,99754.41
2022-10-09T11:19:45.233Z,99758.31
2022-10-09T11:23:56.247Z,99745.16
2022-10-09T11:27:57.513Z,99748.59
2022-10-09T11:32:01.834Z,99750.97
2022-10-09T11:36:06.825Z,99731.69
2022-10-09T11:40:16.864Z,99735.22
2022-10-09T11:44:29.804Z,99734.25
2022-10-09T11:48:34.213Z,99727.72
2022-10-09T11:52:38.546Z,99714.47
2022-10-09T11:56:39.900Z,99710.00
2022-10-09T12:00:41.939Z,99712.75
2022-10-09T12:04:54.400Z,99706.53
2022-10-09T12:08:59.150Z,99695.94
2022-10-09T12:13:05.641Z,99689.88
2022-10-09T12:17:17.716Z,99678.19
2022-10-09T12:21:23.890Z,99670.84
2022-10-09T12:25:27.960Z,99664.69
2022-10-09T12:29:33.244Z,99645.28
2022-10-09T12:33:36.748Z,99646.75
2022-10-09T12:37:37.972Z,99628.59
2022-10-09T12:41:39.740Z,99624.13
2022-10-09T12:45:45.125Z,99620.53
2022-10-09T12:50:04.612Z,99616.03
2022-10-09T12:54:10.186Z,99614.25
2022-10-09T12:58:16.388Z,99605.50
2022-10-09T13:02:18.441Z,99616.81
2022-10-09T13:06:21.741Z,99599.28
2022-10-09T13:10:23.632Z,99593.06
2022-10-09T13:14:34.361Z,99585.75
2022-10-09T13:18:37.438Z,99584.09
2022-10-09T13:22:39.491Z,99577.00
2022-10-09T13:26:42.433Z,99563.91
2022-10-09T13:30:43.915Z,99570.06
2022-10-09T13:34:45.765Z,99566.59
2022-10-09T13:38:47.616Z,99555.25
2022-10-09T13:42:52.613Z,99549.13
2022-10-09T13:46:53.948Z,99541.88
2022-10-09T13:50:55.348Z,99542.09
2022-10-09T13:54:56.765Z,99527.28
2022-10-09T13:58:58.098Z,99526.63
2022-10-09T14:02:59.379Z,99527.59
2022-10-09T14:07:00.703Z,99522.34
2022-10-09T14:11:02.530Z,99509.31
2022-10-09T14:15:03.964Z,99511.13
2022-10-09T14:19:06.369Z,99504.16
2022-10-09T14:23:07.595Z,99498.09
2022-10-09T14:27:08.869Z,99497.38
2022-10-09T14:31:10.193Z,99493.88
2022-10-09T14:35:11.574Z,99489.63
2022-10-09T14:39:12.805Z,99484.38
2022-10-09T14:43:14.204Z,99479.91
2022-10-09T14:47:15.531Z,99466.72
2022-10-09T14:51:18.293Z,99461.56
2022-10-09T14:55:19.564Z,99471.22
2022-10-09T14:59:20.896Z,99462.47
2022-10-09T15:03:22.369Z,99450.22
2022-10-09T15:07:24.441Z,99452.00
2022-10-09T15:11:26.669Z,99449.50
2022-10-09T15:15:32.543Z,99449.19
2022-10-09T15:19:34.143Z,99447.09
2022-10-09T15:23:35.468Z,99435.28
2022-10-09T15:27:36.724Z,99432.44
2022-10-09T15:31:39.279Z,99430.38
2022-10-09T15:35:40.509Z,99424.13
2022-10-09T15:39:41.869Z,99420.63
2022-10-09T15:43:43.117Z,99419.56
2022-10-09T15:47:51.642Z,99415.16
2022-10-09T15:51:53.388Z,99415.88
2022-10-09T15:55:54.692Z,99417.25
2022-10-09T15:59:56.245Z,99406.78
2022-10-09T16:03:57.641Z,99407.78
2022-10-09T16:07:58.897Z,99408.19
2022-10-09T16:12:00.792Z,99395.03
2022-10-09T16:16:04.152Z,99401.66
2022-10-09T16:20:06.074Z,99399.16
2022-10-09T16:24:07.500Z,99399.16
2022-10-09T16:28:10.231Z,99402.47
2022-10-09T16:32:12.177Z,99400.47
2022-10-09T16:36:13.829Z,99406.28
2022-10-09T16:40:15.182Z,99403.38
2022-10-09T16:44:17.079Z,99407.31
2022-10-09T16:48:18.313Z,99406.81
2022-10-09T16:52:20.384Z,99397.72
2022-10-09T16:56:26.861Z,99404.31
2022-10-09T17:00:28.355Z,99395.25
2022-10-09T17:04:29.995Z,99399.16
2022-10-09T17:08:32.324Z,99409.94
2022-10-09T17:12:35.284Z,99407.75
2022-10-09T17:16:38.344Z,99415.28
2022-10-09T17:20:40.036Z,99414.84
2022-10-09T17:24:42.222Z,99421.38
2022-10-09T17:28:44.905Z,99423.50
2022-10-09T17:32:46.813Z,99427.25
2022-10-09T17:36:48.332Z,99421.44
2022-10-09T17:40:49.701Z,99419.94
2022-10-09T17:44:51.028Z,99420.09
2022-10-09T17:48:56.740Z,99421.16
2022-10-09T17:52:58.079Z,99420.47
2022-10-09T17:57:01.228Z,99414.53
2022-10-09T18:01:09.570Z,99412.06
2022-10-09T18:05:10.965Z,99410.44
2022-10-09T18:09:12.268Z,99404.47
2022-10-09T18:13:14.429Z,99402.88
2022-10-09T18:17:15.685Z,99402.13
2022-10-09T18:21:17.262Z,99403.03
2022-10-09T18:25:18.515Z,99397.06
2022-10-09T18:29:20.044Z,99396.25
2022-10-09T18:33:21.373Z,99391.97
2022-10-09T18:37:23.751Z,99395.47
2022-10-09T18:41:25.465Z,99395.56
2022-10-09T18:45:26.862Z,99394.78
2022-10-09T18:49:29.983Z,99393.06
2022-10-09T18:53:32.214Z,99384.47
2022-10-09T18:57:34.137Z,99381.00
2022-10-09T19:01:35.777Z,99381.91
2022-10-09T19:05:37.089Z,99375.84
2022-10-09T19:09:38.451Z,99381.91
2022-10-09T19:13:40.746Z,99380.22
2022-10-09T19:17:42.078Z,99378.50
2022-10-09T19:21:44.207Z,99382.81
2022-10-09T19:25:49.026Z,99369.84
2022-10-09T19:29:50.265Z,99367.28
2022-10-09T19:33:52.109Z,99370.75
2022-10-09T19:37:53.362Z,99364.72
2022-10-09T19:41:55.051Z,99362.97
2022-10-09T19:46:11.649Z,99365.59
2022-10-09T19:50:15.138Z,99364.75
2022-10-09T19:54:16.478Z,99365.59
2022-10-09T19:58:17.947Z,99372.53
2022-10-09T20:02:19.281Z,99371.66
2022-10-09T20:06:20.540Z,99365.59
2022-10-09T20:10:21.778Z,99366.47
2022-10-09T20:14:23.572Z,99370.78
2022-10-09T20:18:24.802Z,99370.78
2022-10-09T20:22:26.080Z,99364.75
2022-10-09T20:26:28.187Z,99366.47
2022-10-09T20:30:29.496Z,99373.38
2022-10-09T20:34:31.043Z,99369.91
2022-10-09T20:38:32.482Z,99369.91
2022-10-09T20:42:33.761Z,99369.03
2022-10-09T20:46:36.004Z,99374.19
2022-10-09T20:50:41.435Z,99364.66
2022-10-09T20:54:42.714Z,99363.81
2022-10-09T20:58:44.090Z,99357.75
2022-10-09T21:02:45.401Z,99357.75
2022-10-09T21:06:46.889Z,99363.75
2022-10-09T21:10:49.342Z,99358.56
2022-10-09T21:14:50.717Z,99349.94
2022-10-09T21:18:56.017Z,99347.31
2022-10-09T21:22:57.267Z,99363.69
2022-10-09T21:26:58.565Z,99364.50
2022-10-09T21:30:59.829Z,99372.22
2022-10-09T21:35:01.136Z,99363.56
2022-10-09T21:39:02.791Z,99364.44
2022-10-09T21:43:04.392Z,99357.50
2022-10-09T21:47:05.624Z,99358.31
2022-10-09T21:51:06.953Z,99364.34
2022-10-09T21:55:08.353Z,99363.44
2022-10-09T21:59:09.871Z,99357.38
2022-10-09T22:03:11.298Z,99350.44
2022-10-09T22:07:17.126Z,99357.31
2022-10-09T22:11:28.405Z,99359.03
2022-10-09T22:15:39.108Z,99357.25
2022-10-09T22:19:48.672Z,99359.81
2022-10-09T22:23:50.556Z,99352.88
2022-10-09T22:27:56.751Z,99358.84
2022-10-09T22:31:58.345Z,99354.56
2022-10-09T22:36:10.012Z,99349.38
2022-10-09T22:40:11.492Z,99347.63
2022-10-09T22:44:12.775Z,99346.72
2022-10-09T22:48:14.691Z,99344.09
2022-10-09T22:52:15.973Z,99346.66
2022-10-09T22:56:18.951Z,99341.44
2022-10-09T23:00:20.236Z,99335.41
2022-10-09T23:04:22.609Z,99335.41
2022-10-09T23:08:23.913Z,99338.75
2022-10-09T23:12:25.308Z,99339.56
2022-10-09T23:16:27.240Z,99333.50
2022-10-09T23:20:28.559Z,99344.59
2022-10-09T23:24:29.811Z,99344.56
2022-10-09T23:28:31.607Z,99343.69
2022-10-09T23:36:43.264Z,99336.72
2022-10-09T23:40:53.704Z,99336.69
2022-10-09T23:44:55.011Z,99339.25
2022-10-09T23:48:56.342Z,99327.16
2022-10-09T23:52:57.901Z,99330.50
2022-10-09T23:56:59.128Z,99331.31
